Time;durP1;ratioP1;P1;durP2;ratioP2;P2;SDS_P1;SDS_P2;PMS_P1;PMS_P2;Temp;Humidity;BMP_temperature;BMP_pressure;BME280_temperature;BME280_humidity;BME280_pressure;Samples;Min_cycle;Max_cycle;Signal;HPM_P1;HPM_P2
2022/11/24 00:00:05;;;;;;;14.88;11.15;;;22.10;44.00;;;;;;7671412;22;84103;-59
2022/11/24 00:03:06;;;;;;;18.88;11.88;;;22.10;43.90;;;;;;7674315;22;83170;-59
2022/11/24 00:06:06;;;;;;;16.33;11.32;;;22.10;43.80;;;;;;7672906;22;83217;-59
2022/11/24 00:09:07;;;;;;;18.42;10.98;;;22.10;43.90;;;;;;7672794;22;83108;-59
2022/11/24 00:12:07;;;;;;;16.90;11.15;;;22.10;43.90;;;;;;7675359;22;82743;-58
2022/11/24 00:15:08;;;;;;;19.30;12.00;;;22.10;44.00;;;;;;7672007;22;83041;-59
2022/11/24 00:18:08;;;;;;;16.27;10.73;;;22.10;44.00;;;;;;7671365;22;83435;-59
2022/11/24 00:21:09;;;;;;;17.73;11.65;;;22.10;44.10;;;;;;7673660;22;83140;-55
2022/11/24 00:24:09;;;;;;;17.00;11.50;;;22.10;43.80;;;;;;7645297;22;90805;-55
2022/11/24 00:27:10;;;;;;;19.08;12.02;;;22.10;43.90;;;;;;7663224;22;83357;-54
2022/11/24 00:30:10;;;;;;;16.48;11.40;;;22.00;43.90;;;;;;7672548;22;83516;-53
2022/11/24 00:33:11;;;;;;;17.48;11.00;;;22.10;43.90;;;;;;7643502;22;83718;-55
2022/11/24 00:36:11;;;;;;;17.98;11.60;;;22.10;44.10;;;;;;7637358;22;83442;-56
2022/11/24 00:39:12;;;;;;;15.52;11.00;;;22.10;44.10;;;;;;7635817;22;82768;-59
2022/11/24 00:42:13;;;;;;;16.75;10.93;;;22.10;43.90;;;;;;7636567;22;83463;-58
2022/11/24 00:45:13;;;;;;;18.00;11.80;;;22.10;44.00;;;;;;7631167;22;83287;-59
2022/11/24 00:48:14;;;;;;;17.13;11.05;;;22.10;44.00;;;;;;7635385;22;84562;-59
2022/11/24 00:51:14;;;;;;;16.65;11.60;;;22.10;44.10;;;;;;7637697;22;83477;-60
2022/11/24 00:54:15;;;;;;;16.55;11.02;;;22.10;44.10;;;;;;7631857;22;82973;-60
2022/11/24 00:57:15;;;;;;;16.38;10.80;;;22.00;44.10;;;;;;7635843;22;83043;-60
2022/11/24 01:00:16;;;;;;;17.73;11.18;;;22.00;44.20;;;;;;7635709;22;82983;-59
2022/11/24 01:03:16;;;;;;;17.25;10.38;;;22.10;44.20;;;;;;7633705;22;83370;-59
2022/11/24 01:06:16;;;;;;;17.38;10.90;;;22.00;44.20;;;;;;7632194;22;83091;-59
2022/11/24 01:09:17;;;;;;;15.30;9.63;;;22.00;44.10;;;;;;7630333;22;83149;-59
2022/11/24 01:12:17;;;;;;;16.17;10.98;;;22.00;44.30;;;;;;7639685;22;83130;-59
2022/11/24 01:15:18;;;;;;;16.85;10.50;;;22.00;44.30;;;;;;7632198;22;84665;-55
2022/11/24 01:18:18;;;;;;;14.15;9.82;;;22.00;44.10;;;;;;7634472;22;83025;-54
2022/11/24 01:21:19;;;;;;;14.10;10.82;;;22.00;44.00;;;;;;7639983;22;83406;-53
2022/11/24 01:24:20;;;;;;;14.32;9.90;;;22.00;44.10;;;;;;7636428;22;83428;-55
2022/11/24 01:27:20;;;;;;;17.23;10.18;;;22.00;44.00;;;;;;7641035;22;83826;-56
2022/11/24 01:30:21;;;;;;;15.90;10.32;;;22.00;43.90;;;;;;7633521;22;83902;-55
2022/11/24 01:33:22;;;;;;;14.70;9.60;;;22.00;43.90;;;;;;7632340;22;84079;-55
2022/11/24 01:36:22;;;;;;;14.30;10.48;;;22.00;44.10;;;;;;7638539;22;83815;-56
2022/11/24 01:39:23;;;;;;;14.95;9.77;;;22.00;43.90;;;;;;7634210;22;83020;-53
2022/11/24 01:42:23;;;;;;;14.43;9.88;;;22.00;44.00;;;;;;7637999;22;81763;-55
2022/11/24 01:45:24;;;;;;;14.45;9.80;;;22.00;44.30;;;;;;7637201;22;80976;-56
2022/11/24 01:48:24;;;;;;;14.40;9.35;;;22.00;44.10;;;;;;7643417;22;80615;-55
2022/11/24 01:51:25;;;;;;;13.73;9.70;;;22.00;44.20;;;;;;7642127;22;80688;-58
2022/11/24 01:54:25;;;;;;;14.15;9.48;;;22.00;44.00;;;;;;7638513;22;82012;-59
2022/11/24 01:57:26;;;;;;;13.38;9.55;;;22.00;44.30;;;;;;7639211;22;80354;-59
2022/11/24 02:00:26;;;;;;;14.45;9.68;;;22.00;44.10;;;;;;7643622;22;80527;-60
2022/11/24 02:03:27;;;;;;;11.77;8.43;;;22.00;44.30;;;;;;7638635;22;81036;-58
2022/11/24 02:06:27;;;;;;;15.40;10.18;;;22.00;44.20;;;;;;7614113;22;81895;-59
2022/11/24 02:09:28;;;;;;;15.55;9.77;;;22.00;44.10;;;;;;7636294;22;83101;-59
2022/11/24 02:12:28;;;;;;;15.10;9.63;;;22.00;44.10;;;;;;7640984;22;83033;-58
2022/11/24 02:15:29;;;;;;;13.77;9.73;;;22.00;44.20;;;;;;7642282;22;80811;-59
2022/11/24 02:18:29;;;;;;;13.90;9.65;;;22.00;44.20;;;;;;7675176;22;85907;-60
2022/11/24 02:21:30;;;;;;;15.40;10.52;;;22.00;44.40;;;;;;7645857;22;80436;-59
2022/11/24 02:24:30;;;;;;;14.57;9.98;;;22.00;44.50;;;;;;7637496;22;83572;-58
2022/11/24 02:27:31;;;;;;;14.35;10.00;;;22.00;44.50;;;;;;7637449;22;82930;-67
2022/11/24 02:30:31;;;;;;;15.20;10.18;;;22.00;44.50;;;;;;7636443;22;83764;-68
2022/11/24 02:33:32;;;;;;;16.67;10.63;;;22.00;44.30;;;;;;7636380;22;83381;-64
2022/11/24 02:36:32;;;;;;;14.35;10.15;;;22.00;44.30;;;;;;7636369;22;83934;-66
2022/11/24 02:39:33;;;;;;;15.52;9.98;;;22.00;44.50;;;;;;7638977;22;83684;-66
2022/11/24 02:42:33;;;;;;;16.65;10.32;;;22.00;44.30;;;;;;7637387;22;83888;-68
2022/11/24 02:45:34;;;;;;;16.98;10.63;;;22.00;44.00;;;;;;7637044;22;82991;-63
2022/11/24 02:48:34;;;;;;;17.13;10.93;;;22.00;43.80;;;;;;7637944;22;83319;-66
2022/11/24 02:51:35;;;;;;;15.73;10.45;;;22.00;43.60;;;;;;7638833;22;83230;-67
2022/11/24 02:54:35;;;;;;;16.77;11.50;;;22.00;43.50;;;;;;7633902;22;83315;-65
2022/11/24 02:57:36;;;;;;;17.98;11.40;;;22.00;43.30;;;;;;7638116;22;83144;-65
2022/11/24 03:00:36;;;;;;;17.17;11.00;;;22.00;43.30;;;;;;7637050;22;83188;-68
2022/11/24 03:03:36;;;;;;;16.88;11.50;;;22.00;43.40;;;;;;7639039;22;82889;-69
2022/11/24 03:06:37;;;;;;;16.98;11.48;;;22.00;43.30;;;;;;7636073;22;83582;-59
2022/11/24 03:09:38;;;;;;;16.45;10.65;;;22.00;43.20;;;;;;7634952;22;83855;-60
2022/11/24 03:12:38;;;;;;;16.38;11.27;;;22.00;43.10;;;;;;7669871;22;84194;-59
2022/11/24 03:15:40;;;;;;;18.13;12.02;;;22.00;43.00;;;;;;7675559;22;83427;-59
2022/11/24 03:18:40;;;;;;;15.65;10.52;;;22.00;43.00;;;;;;7673638;22;83011;-58
2022/11/24 03:21:41;;;;;;;13.82;9.23;;;21.90;42.90;;;;;;7673561;22;83060;-58
2022/11/24 03:24:41;;;;;;;16.30;10.98;;;22.00;42.90;;;;;;7677315;22;82823;-59
2022/11/24 03:27:42;;;;;;;15.35;9.95;;;22.00;42.80;;;;;;7674103;22;83304;-60
2022/11/24 03:30:42;;;;;;;15.70;10.48;;;22.00;42.90;;;;;;7679761;22;82073;-59
2022/11/24 03:33:43;;;;;;;15.43;10.50;;;22.00;42.70;;;;;;7673747;22;84235;-59
2022/11/24 03:36:43;;;;;;;14.52;10.23;;;22.00;42.60;;;;;;7671266;22;83824;-60
2022/11/24 03:39:44;;;;;;;15.05;10.40;;;22.00;42.50;;;;;;7674257;22;84072;-58
2022/11/24 03:42:44;;;;;;;13.68;9.68;;;22.00;42.50;;;;;;7673691;22;83075;-59
2022/11/24 03:45:44;;;;;;;16.63;11.00;;;22.00;42.60;;;;;;7677133;22;83367;-59
2022/11/24 03:48:45;;;;;;;17.45;10.98;;;22.00;42.60;;;;;;7670377;22;83690;-59
2022/11/24 03:51:45;;;;;;;16.95;10.02;;;22.00;42.50;;;;;;7675583;22;83398;-59
2022/11/24 03:54:46;;;;;;;16.10;10.05;;;21.90;42.40;;;;;;7672842;22;83066;-58
2022/11/24 03:57:47;;;;;;;14.70;9.98;;;21.90;42.40;;;;;;7672946;22;83010;-58
2022/11/24 04:00:47;;;;;;;14.50;9.93;;;22.00;42.30;;;;;;7673955;22;84829;-65
2022/11/24 04:03:48;;;;;;;16.27;9.02;;;22.00;42.40;;;;;;7677270;22;83261;-66
2022/11/24 04:06:48;;;;;;;15.40;10.40;;;22.00;42.30;;;;;;7677887;22;80696;-66
2022/11/24 04:09:49;;;;;;;12.93;9.48;;;22.00;42.20;;;;;;7674803;22;83048;-66
2022/11/24 04:12:49;;;;;;;13.52;9.15;;;22.00;42.00;;;;;;7675503;22;83106;-64
2022/11/24 04:15:50;;;;;;;15.90;9.48;;;22.00;41.90;;;;;;7677197;22;80448;-64
2022/11/24 04:18:50;;;;;;;13.20;9.65;;;22.10;42.00;;;;;;7679742;22;80475;-54
2022/11/24 04:21:51;;;;;;;17.00;10.35;;;22.10;41.50;;;;;;7676621;22;80422;-52
2022/11/24 04:24:51;;;;;;;16.23;9.63;;;22.10;41.30;;;;;;7675064;22;84218;-54
2022/11/24 04:27:52;;;;;;;16.88;10.82;;;22.20;41.00;;;;;;7675894;22;82557;-53
2022/11/24 04:30:52;;;;;;;14.77;10.27;;;22.20;40.80;;;;;;7672785;22;83012;-55
2022/11/24 04:33:53;;;;;;;15.55;10.10;;;22.30;40.80;;;;;;7672449;22;82805;-56
2022/11/24 04:36:53;;;;;;;16.70;10.52;;;22.30;40.70;;;;;;7675191;22;83836;-50
2022/11/24 04:39:54;;;;;;;17.60;11.32;;;22.30;40.60;;;;;;7670405;22;82999;-53
2022/11/24 04:42:54;;;;;;;14.63;10.13;;;22.40;40.60;;;;;;7671568;22;85634;-53
2022/11/24 04:45:55;;;;;;;16.05;10.57;;;22.40;40.60;;;;;;7673362;22;87394;-53
2022/11/24 04:48:55;;;;;;;16.35;10.32;;;22.40;40.50;;;;;;7675274;22;84512;-54
2022/11/24 04:51:56;;;;;;;15.45;10.15;;;22.40;40.60;;;;;;7675488;22;82919;-52
2022/11/24 04:54:56;;;;;;;15.98;10.18;;;22.40;40.50;;;;;;7673314;22;83817;-52
2022/11/24 04:57:57;;;;;;;14.18;9.50;;;22.40;40.40;;;;;;7674635;22;83131;-55
2022/11/24 05:00:57;;;;;;;13.63;9.63;;;22.50;40.50;;;;;;7675537;22;82790;-54
2022/11/24 05:03:58;;;;;;;14.63;9.25;;;22.60;40.70;;;;;;7677231;22;80734;-52
2022/11/24 05:06:58;;;;;;;14.90;10.13;;;22.60;40.70;;;;;;7672479;22;80786;-55
2022/11/24 05:13:18;;;;;;;15.98;9.07;;;22.70;40.60;;;;;;7671985;22;83918;-65
2022/11/24 05:16:18;;;;;;;16.60;10.38;;;22.70;41.10;;;;;;7675069;22;80687;-68
2022/11/24 05:19:19;;;;;;;18.63;9.50;;;22.70;41.40;;;;;;7671343;22;83192;-66
2022/11/24 05:22:19;;;;;;;14.23;9.65;;;22.70;41.70;;;;;;7678300;22;83061;-69
2022/11/24 05:25:20;;;;;;;13.38;9.75;;;22.80;41.20;;;;;;7678528;22;80805;-68
2022/11/24 05:28:20;;;;;;;17.60;10.63;;;22.80;40.90;;;;;;7679495;22;80530;-63
2022/11/24 05:31:21;;;;;;;15.60;10.05;;;22.70;40.50;;;;;;7648251;22;83784;-65
2022/11/24 05:34:21;;;;;;;16.45;10.57;;;22.80;40.40;;;;;;7670454;22;83613;-57
2022/11/24 05:37:24;;;;;;;21.38;11.93;;;22.80;40.60;;;;;;7669037;22;83300;-57
2022/11/24 05:40:24;;;;;;;17.60;11.50;;;22.80;40.20;;;;;;7670215;22;83724;-57
2022/11/24 05:43:25;;;;;;;19.13;12.90;;;22.80;40.20;;;;;;7667696;22;83344;-57
2022/11/24 05:46:25;;;;;;;18.88;11.40;;;22.80;40.50;;;;;;7669908;22;83717;-58
2022/11/24 05:49:26;;;;;;;21.05;12.63;;;22.90;40.20;;;;;;7669436;22;83777;-58
2022/11/24 05:52:26;;;;;;;20.55;12.73;;;22.90;40.00;;;;;;7668292;22;83296;-59
2022/11/24 05:55:27;;;;;;;18.27;11.45;;;22.90;39.90;;;;;;7671628;22;83752;-59
2022/11/24 05:58:27;;;;;;;18.77;12.00;;;22.90;39.80;;;;;;7670049;22;84858;-60
2022/11/24 06:01:28;;;;;;;20.65;12.48;;;22.90;39.70;;;;;;7663137;22;83070;-60
2022/11/24 06:04:28;;;;;;;20.13;13.45;;;22.90;39.60;;;;;;7669883;22;83219;-59
2022/11/24 06:07:29;;;;;;;21.85;13.38;;;22.90;39.30;;;;;;7668523;22;83274;-58
2022/11/24 06:10:29;;;;;;;21.50;14.57;;;23.00;39.10;;;;;;7638656;22;90164;-59
2022/11/24 06:13:30;;;;;;;20.02;13.55;;;23.00;39.10;;;;;;7635976;22;83680;-59
2022/11/24 06:16:30;;;;;;;22.33;14.20;;;23.00;39.00;;;;;;7637560;22;82944;-59
2022/11/24 06:19:31;;;;;;;22.20;14.05;;;23.00;38.80;;;;;;7634794;22;83140;-59
2022/11/24 06:22:31;;;;;;;22.83;14.77;;;23.00;38.80;;;;;;7637651;22;83260;-60
2022/11/24 06:25:32;;;;;;;25.00;14.95;;;23.00;38.70;;;;;;7634973;22;82932;-60
2022/11/24 06:28:32;;;;;;;32.03;16.25;;;23.00;39.00;;;;;;7636981;22;83099;-57
2022/11/24 06:31:33;;;;;;;30.30;18.02;;;23.00;39.20;;;;;;7636340;22;83054;-59
2022/11/24 06:34:33;;;;;;;41.28;24.00;;;22.90;38.90;;;;;;7636346;22;83222;-58
2022/11/24 06:37:33;;;;;;;37.58;21.05;;;22.60;37.60;;;;;;7635464;22;83212;-53
2022/11/24 06:40:34;;;;;;;37.78;20.77;;;22.40;38.30;;;;;;7631578;22;83381;-59
2022/11/24 06:43:34;;;;;;;30.60;19.10;;;22.40;38.70;;;;;;7630796;22;84108;-58
2022/11/24 06:46:35;;;;;;;35.38;19.52;;;22.40;39.00;;;;;;7630827;22;83626;-57
2022/11/24 06:49:35;;;;;;;33.03;20.15;;;22.30;39.00;;;;;;7630741;22;84726;-58
2022/11/24 06:52:36;;;;;;;31.52;19.02;;;22.30;39.10;;;;;;7630399;22;83427;-58
2022/11/24 06:55:36;;;;;;;28.98;18.35;;;22.30;39.50;;;;;;7630861;22;83199;-57
2022/11/24 06:58:37;;;;;;;35.78;20.70;;;22.20;39.40;;;;;;7631131;22;83050;-59
2022/11/24 07:01:37;;;;;;;35.78;20.80;;;22.20;39.40;;;;;;7630561;22;82638;-58
2022/11/24 07:04:38;;;;;;;31.48;19.30;;;22.20;39.20;;;;;;7628690;22;83962;-58
2022/11/24 07:07:38;;;;;;;32.10;20.55;;;22.20;39.30;;;;;;7633546;22;82761;-57
2022/11/24 07:10:39;;;;;;;31.02;18.35;;;22.20;39.30;;;;;;7644991;22;83815;-59
2022/11/24 07:13:39;;;;;;;33.80;19.48;;;22.20;39.40;;;;;;7674068;22;83539;-59
2022/11/24 07:16:40;;;;;;;33.10;19.73;;;22.20;39.20;;;;;;7674147;22;84396;-59
2022/11/24 07:19:40;;;;;;;33.70;20.13;;;22.10;38.90;;;;;;7673881;22;83127;-56
2022/11/24 07:22:41;;;;;;;35.35;21.33;;;22.10;39.00;;;;;;7674361;22;83276;-57
2022/11/24 07:25:41;;;;;;;37.05;13.10;;;22.10;38.90;;;;;;7672055;22;83353;-58
2022/11/24 07:28:42;;;;;;;26.58;13.57;;;22.10;39.00;;;;;;7665989;22;84405;-59
2022/11/24 07:31:44;;;;;;;29.63;12.43;;;22.10;38.90;;;;;;7676829;22;83328;-58
2022/11/24 07:34:44;;;;;;;30.83;13.50;;;22.10;39.00;;;;;;7676229;22;83114;-59
2022/11/24 07:37:45;;;;;;;28.92;13.45;;;22.00;38.60;;;;;;7677132;22;83748;-57
2022/11/24 07:40:45;;;;;;;38.85;15.27;;;22.10;38.70;;;;;;7667986;22;83906;-59
2022/11/24 07:43:46;;;;;;;29.35;14.98;;;22.00;38.60;;;;;;7672162;22;83494;-59
2022/11/24 07:46:49;;;;;;;31.38;14.75;;;22.00;38.80;;;;;;7673698;22;82980;-59
2022/11/24 07:49:49;;;;;;;30.00;13.82;;;22.00;38.70;;;;;;7676108;22;84044;-59
2022/11/24 07:52:50;;;;;;;33.70;15.23;;;22.00;38.90;;;;;;7677638;22;82872;-58
2022/11/24 07:55:50;;;;;;;26.10;13.70;;;22.00;38.80;;;;;;7675118;22;83028;-58
2022/11/24 07:58:50;;;;;;;27.23;13.98;;;22.00;38.90;;;;;;7670673;22;85214;-55
2022/11/24 08:01:51;;;;;;;32.10;13.82;;;22.00;38.80;;;;;;7673069;22;83351;-58
2022/11/24 08:04:51;;;;;;;32.67;14.18;;;22.00;38.90;;;;;;7667580;22;83042;-57
2022/11/24 08:07:52;;;;;;;35.35;15.20;;;22.00;38.80;;;;;;7673740;22;83937;-57
2022/11/24 08:10:52;;;;;;;29.77;15.02;;;21.90;38.80;;;;;;7662300;22;84060;-60
2022/11/24 08:13:53;;;;;;;31.17;15.80;;;21.90;38.70;;;;;;7632255;22;83873;-55
2022/11/24 08:16:53;;;;;;;31.83;15.38;;;21.90;38.80;;;;;;7636236;22;83372;-58
2022/11/24 08:19:54;;;;;;;30.33;14.93;;;21.90;38.70;;;;;;7636600;22;85005;-59
2022/11/24 08:22:54;;;;;;;37.08;16.45;;;21.90;38.70;;;;;;7639787;22;83977;-58
2022/11/24 08:25:56;;;;;;;37.45;15.70;;;21.90;38.60;;;;;;7633097;22;82992;-58
2022/11/24 08:28:56;;;;;;;32.50;16.45;;;21.90;38.60;;;;;;7628859;22;83648;-59
2022/11/24 08:31:57;;;;;;;30.77;16.02;;;21.90;38.60;;;;;;7606444;22;84211;-58
2022/11/24 08:34:57;;;;;;;32.85;15.45;;;21.90;38.70;;;;;;7629859;22;83477;-57
2022/11/24 08:37:58;;;;;;;30.27;15.35;;;22.00;38.70;;;;;;7634668;22;84161;-70
2022/11/24 08:40:59;;;;;;;32.03;15.32;;;22.00;38.60;;;;;;7634582;22;83494;-71
2022/11/24 08:43:59;;;;;;;31.30;14.70;;;22.00;38.50;;;;;;7630055;22;88120;-70
2022/11/24 08:47:00;;;;;;;30.92;14.57;;;22.00;38.60;;;;;;7635218;22;83603;-71
2022/11/24 08:50:01;;;;;;;29.02;14.32;;;22.10;38.50;;;;;;7623157;22;82895;-72
2022/11/24 08:53:01;;;;;;;27.23;13.02;;;22.10;38.50;;;;;;7628595;22;83251;-70
2022/11/24 08:56:02;;;;;;;27.95;13.23;;;22.10;38.40;;;;;;7628870;22;83473;-57
2022/11/24 08:59:02;;;;;;;28.92;13.77;;;22.10;38.40;;;;;;7631045;22;83061;-56
2022/11/24 09:02:03;;;;;;;33.72;13.48;;;22.20;38.40;;;;;;7631949;22;83026;-58
2022/11/24 09:05:03;;;;;;;31.17;14.13;;;22.20;38.30;;;;;;7634638;22;82860;-57
2022/11/24 09:08:03;;;;;;;26.17;13.98;;;22.20;38.30;;;;;;7638496;22;83048;-59
2022/11/24 09:11:04;;;;;;;32.83;13.45;;;22.30;38.30;;;;;;7651657;22;86745;-59
2022/11/24 09:14:05;;;;;;;25.00;13.05;;;22.30;38.00;;;;;;7673313;22;83034;-58
2022/11/24 09:17:05;;;;;;;32.33;13.52;;;22.30;38.00;;;;;;7657800;22;83366;-57
2022/11/24 09:20:06;;;;;;;42.85;14.75;;;22.30;38.10;;;;;;7638972;22;82814;-58
2022/11/24 09:23:06;;;;;;;29.02;14.43;;;22.30;38.10;;;;;;7636332;22;83857;-58
2022/11/24 09:26:07;;;;;;;24.17;12.77;;;22.30;37.90;;;;;;7633690;22;83801;-58
2022/11/24 09:29:07;;;;;;;28.40;12.90;;;22.40;37.90;;;;;;7634712;22;83310;-57
2022/11/24 09:32:08;;;;;;;24.70;13.13;;;22.30;37.80;;;;;;7636877;22;83115;-67
2022/11/24 09:35:08;;;;;;;23.98;12.93;;;22.40;37.90;;;;;;7636419;22;83379;-66
2022/11/24 09:38:09;;;;;;;23.02;12.15;;;22.30;37.80;;;;;;7637249;22;83076;-63
2022/11/24 09:41:09;;;;;;;27.02;13.18;;;22.40;37.70;;;;;;7635091;22;83446;-67
2022/11/24 09:44:10;;;;;;;27.60;13.57;;;22.40;37.90;;;;;;7633943;22;83625;-68
2022/11/24 09:47:10;;;;;;;20.98;12.18;;;22.40;37.90;;;;;;7638850;22;84395;-69
2022/11/24 09:50:11;;;;;;;23.20;12.02;;;22.40;38.00;;;;;;7639198;22;83022;-61
2022/11/24 09:53:11;;;;;;;25.75;12.95;;;22.50;37.90;;;;;;7640287;22;84102;-61
2022/11/24 09:56:12;;;;;;;22.80;12.10;;;22.50;38.00;;;;;;7636667;22;82957;-60
2022/11/24 09:59:12;;;;;;;26.38;12.68;;;22.50;38.00;;;;;;7635396;22;83841;-61
2022/11/24 10:02:13;;;;;;;24.75;12.60;;;22.50;37.90;;;;;;7636652;22;82792;-60
2022/11/24 10:05:14;;;;;;;23.30;11.02;;;22.60;38.00;;;;;;7636837;22;82871;-61
2022/11/24 10:08:14;;;;;;;21.42;11.95;;;22.60;38.00;;;;;;7636921;22;83116;-67
2022/11/24 10:11:15;;;;;;;21.92;11.93;;;22.50;37.90;;;;;;7634270;22;83377;-66
2022/11/24 10:14:15;;;;;;;21.98;11.63;;;22.50;37.90;;;;;;7676683;22;83118;-67
2022/11/24 10:17:16;;;;;;;20.10;11.18;;;22.50;37.90;;;;;;7676596;22;82998;-68
2022/11/24 10:20:16;;;;;;;19.42;11.45;;;22.50;37.90;;;;;;7676758;22;83192;-68
2022/11/24 10:23:17;;;;;;;22.10;11.70;;;22.50;38.10;;;;;;7669791;22;83992;-69
2022/11/24 10:26:17;;;;;;;25.52;11.43;;;22.50;38.00;;;;;;7676110;22;84222;-59
2022/11/24 10:29:18;;;;;;;22.38;12.15;;;22.40;37.90;;;;;;7676336;22;83115;-57
2022/11/24 10:32:18;;;;;;;21.67;11.45;;;22.40;38.00;;;;;;7674873;22;84703;-57
2022/11/24 10:35:19;;;;;;;18.98;11.60;;;22.40;38.00;;;;;;7677294;22;83497;-58
2022/11/24 10:38:19;;;;;;;17.58;10.02;;;22.40;37.90;;;;;;7668250;22;84047;-59
2022/11/24 10:41:20;;;;;;;21.02;10.93;;;22.40;38.00;;;;;;7667983;22;83297;-58
2022/11/24 10:44:20;;;;;;;21.27;10.85;;;22.40;37.80;;;;;;7668106;22;83068;-57
2022/11/24 10:47:21;;;;;;;20.77;12.23;;;22.40;38.10;;;;;;7671034;22;83530;-58
2022/11/24 10:50:22;;;;;;;25.45;12.48;;;22.30;38.00;;;;;;7666616;22;83057;-57
2022/11/24 10:53:22;;;;;;;21.17;10.88;;;22.30;38.00;;;;;;7666513;22;84551;-56
2022/11/24 10:56:23;;;;;;;19.83;11.90;;;22.30;38.10;;;;;;7670656;22;84527;-57
2022/11/24 10:59:23;;;;;;;21.60;11.40;;;22.30;38.10;;;;;;7665890;22;83637;-57
2022/11/24 11:02:25;;;;;;;21.90;11.43;;;22.30;38.10;;;;;;7669023;22;84634;-57
2022/11/24 11:05:26;;;;;;;26.05;12.23;;;22.30;38.20;;;;;;7670876;22;82986;-58
2022/11/24 11:08:26;;;;;;;22.50;11.77;;;22.30;38.20;;;;;;7664882;22;83413;-57
2022/11/24 11:11:27;;;;;;;27.75;13.73;;;22.20;38.10;;;;;;7644729;22;83809;-55
2022/11/24 11:14:27;;;;;;;31.95;14.73;;;22.20;38.10;;;;;;7658284;22;82759;-57
2022/11/24 11:17:28;;;;;;;29.08;14.57;;;22.20;38.00;;;;;;7655306;22;83537;-58
2022/11/24 11:20:28;;;;;;;30.45;13.98;;;22.20;38.10;;;;;;7637226;22;82944;-57
2022/11/24 11:23:29;;;;;;;31.42;13.88;;;22.20;38.20;;;;;;7628867;22;83843;-68
2022/11/24 11:26:32;;;;;;;26.75;15.48;;;22.10;38.10;;;;;;7634027;22;83178;-68
2022/11/24 11:29:33;;;;;;;27.13;14.88;;;22.10;38.10;;;;;;7632314;22;83885;-68
2022/11/24 11:32:33;;;;;;;27.92;14.85;;;22.10;38.20;;;;;;7634943;22;83739;-67
2022/11/24 11:35:34;;;;;;;33.00;16.40;;;22.10;38.20;;;;;;7635162;22;84105;-67
2022/11/24 11:38:34;;;;;;;30.73;15.70;;;22.10;38.20;;;;;;7637898;22;83687;-66
2022/11/24 11:41:35;;;;;;;28.25;15.57;;;22.10;38.10;;;;;;7639320;22;83596;-68
2022/11/24 11:44:35;;;;;;;35.60;17.73;;;22.10;38.00;;;;;;7639642;22;82759;-68
2022/11/24 11:47:36;;;;;;;34.80;16.42;;;22.10;38.00;;;;;;7637364;22;83241;-68
2022/11/24 11:50:36;;;;;;;35.78;16.75;;;22.10;38.00;;;;;;7634021;22;83272;-73
2022/11/24 11:53:37;;;;;;;34.05;17.25;;;22.10;38.20;;;;;;7640956;22;83185;-74
2022/11/24 11:56:39;;;;;;;36.63;18.65;;;22.10;38.30;;;;;;7634435;22;85018;-72
2022/11/24 11:59:39;;;;;;;44.40;19.10;;;22.10;38.30;;;;;;7640548;22;82644;-75
2022/11/24 12:02:40;;;;;;;35.22;18.40;;;22.10;38.30;;;;;;7637067;22;82924;-74
2022/11/24 12:05:40;;;;;;;44.70;19.08;;;22.10;38.40;;;;;;7635995;22;83606;-74
2022/11/24 12:08:41;;;;;;;45.25;18.85;;;22.10;38.50;;;;;;7639664;22;83321;-62
2022/11/24 12:11:41;;;;;;;36.03;17.85;;;22.10;38.50;;;;;;7638425;22;84802;-60
2022/11/24 12:14:42;;;;;;;41.63;18.65;;;22.10;38.70;;;;;;7638793;22;83333;-73
2022/11/24 12:17:42;;;;;;;35.85;19.10;;;22.10;39.10;;;;;;7610724;22;84422;-67
2022/11/24 12:20:43;;;;;;;38.10;19.38;;;22.10;39.20;;;;;;7635729;22;83753;-65
2022/11/24 12:23:43;;;;;;;40.70;20.40;;;22.10;38.70;;;;;;7640152;22;83775;-64
2022/11/24 12:26:44;;;;;;;36.67;20.02;;;22.10;38.60;;;;;;7635867;22;83622;-66
2022/11/24 12:29:44;;;;;;;43.85;20.88;;;22.20;38.40;;;;;;7638793;22;82766;-66
2022/11/24 12:32:45;;;;;;;39.00;20.25;;;22.20;38.20;;;;;;7637744;22;83239;-66
2022/11/24 12:35:46;;;;;;;45.28;19.60;;;22.20;38.00;;;;;;7635355;22;83381;-59
2022/11/24 12:38:46;;;;;;;36.60;19.85;;;22.30;38.50;;;;;;7639956;22;82954;-60
2022/11/24 12:41:47;;;;;;;38.53;20.05;;;22.30;38.80;;;;;;7637368;22;83199;-59
2022/11/24 12:44:47;;;;;;;42.42;21.73;;;22.40;38.90;;;;;;7639425;22;83314;-58
2022/11/24 12:47:48;;;;;;;45.92;21.92;;;22.50;38.70;;;;;;7631745;22;83700;-60
2022/11/24 12:50:48;;;;;;;36.65;18.88;;;22.50;38.60;;;;;;7638326;22;83497;-60
2022/11/24 12:53:49;;;;;;;40.28;20.08;;;22.50;38.40;;;;;;7636389;22;83086;-60
2022/11/24 12:56:49;;;;;;;46.80;20.73;;;22.50;38.20;;;;;;7634003;22;84888;-60
2022/11/24 12:59:50;;;;;;;40.38;19.85;;;22.50;38.10;;;;;;7640053;22;83020;-60
2022/11/24 13:02:50;;;;;;;36.63;19.98;;;22.60;38.10;;;;;;7633198;22;83090;-60
2022/11/24 13:05:51;;;;;;;46.08;21.60;;;22.60;38.00;;;;;;7635280;22;84033;-60
2022/11/24 13:08:51;;;;;;;40.80;21.77;;;22.70;38.00;;;;;;7640430;22;83029;-59
2022/11/24 13:11:52;;;;;;;50.60;25.23;;;22.70;38.30;;;;;;7638298;22;83064;-73
2022/11/24 13:14:53;;;;;;;54.25;27.75;;;22.70;38.40;;;;;;7638781;22;83266;-73
2022/11/24 13:17:53;;;;;;;53.58;28.05;;;22.70;38.40;;;;;;7635010;22;83596;-72
2022/11/24 13:20:53;;;;;;;57.13;29.60;;;22.70;38.20;;;;;;7638292;22;83130;-73
2022/11/24 13:23:55;;;;;;;54.25;27.17;;;22.70;38.10;;;;;;7635107;22;83576;-72
2022/11/24 13:26:56;;;;;;;47.67;25.75;;;22.70;37.80;;;;;;7636230;22;83553;-70
2022/11/24 13:29:56;;;;;;;48.03;24.88;;;22.60;37.60;;;;;;7634845;22;82927;-71
2022/11/24 13:32:57;;;;;;;50.65;26.17;;;22.60;37.60;;;;;;7639609;22;82478;-75
2022/11/24 13:35:57;;;;;;;45.22;23.17;;;22.60;37.50;;;;;;7634059;22;83057;-69
2022/11/24 13:38:58;;;;;;;45.30;23.23;;;22.60;37.60;;;;;;7634719;22;84402;-63
2022/11/24 13:41:58;;;;;;;47.42;23.67;;;22.60;37.60;;;;;;7637153;22;82803;-73
2022/11/24 13:44:59;;;;;;;41.95;22.08;;;22.70;37.60;;;;;;7636575;22;84168;-73
2022/11/24 13:47:59;;;;;;;49.33;24.48;;;22.60;37.70;;;;;;7637324;22;83492;-74
2022/11/24 13:51:00;;;;;;;42.90;20.90;;;22.60;37.60;;;;;;7634542;22;83667;-75
2022/11/24 13:54:00;;;;;;;38.97;21.63;;;22.50;37.60;;;;;;7632705;22;83363;-76
2022/11/24 13:57:01;;;;;;;45.42;21.50;;;22.50;37.50;;;;;;7635001;22;83476;-76
2022/11/24 14:00:01;;;;;;;39.80;21.48;;;22.40;37.60;;;;;;7632584;22;83103;-77
2022/11/24 14:03:05;;;;;;;41.65;20.95;;;22.40;37.60;;;;;;7635312;22;83749;-75
2022/11/24 14:06:05;;;;;;;49.40;21.48;;;22.40;37.50;;;;;;7633927;22;83108;-68
2022/11/24 14:09:06;;;;;;;38.38;21.33;;;22.30;37.30;;;;;;7633416;22;83244;-66
2022/11/24 14:12:06;;;;;;;36.67;18.95;;;22.30;37.20;;;;;;7633495;22;84706;-67
2022/11/24 14:15:06;;;;;;;41.22;20.13;;;22.20;37.10;;;;;;7631732;22;83449;-68
2022/11/24 14:18:07;;;;;;;35.47;17.55;;;22.20;37.20;;;;;;7631712;22;83148;-68
2022/11/24 14:21:07;;;;;;;31.17;16.23;;;22.20;37.10;;;;;;7633961;22;82936;-70
2022/11/24 14:24:08;;;;;;;32.28;15.77;;;22.10;36.80;;;;;;7637201;22;83573;-64
2022/11/24 14:27:08;;;;;;;29.02;14.38;;;22.10;37.10;;;;;;7636806;22;83599;-71
2022/11/24 14:30:09;;;;;;;20.92;12.10;;;22.10;37.10;;;;;;7635535;22;83507;-69
2022/11/24 14:33:09;;;;;;;23.95;12.95;;;22.10;37.10;;;;;;7635681;22;83479;-67
2022/11/24 14:36:10;;;;;;;22.92;12.23;;;22.00;37.20;;;;;;7639159;22;83145;-71
2022/11/24 14:39:11;;;;;;;18.45;10.55;;;22.00;37.70;;;;;;7639610;22;84922;-68
2022/11/24 14:42:11;;;;;;;24.88;11.43;;;22.00;37.50;;;;;;7634755;22;84230;-66
2022/11/24 14:45:12;;;;;;;18.23;9.82;;;22.00;37.80;;;;;;7638234;22;82998;-63
2022/11/24 14:48:12;;;;;;;14.35;8.95;;;22.00;38.00;;;;;;7640415;22;82314;-62
2022/11/24 14:51:12;;;;;;;14.70;8.90;;;22.00;38.10;;;;;;7641566;22;80690;-65
2022/11/24 14:54:13;;;;;;;17.30;9.43;;;22.00;38.00;;;;;;7639387;22;81313;-66
2022/11/24 14:57:14;;;;;;;13.07;8.45;;;22.00;38.10;;;;;;7642545;22;80705;-65
2022/11/24 15:00:15;;;;;;;14.18;8.30;;;22.00;38.00;;;;;;7639513;22;80290;-67
2022/11/24 15:03:16;;;;;;;11.35;6.60;;;22.00;38.20;;;;;;7643678;22;80499;-80
2022/11/24 15:06:16;;;;;;;11.20;7.03;;;22.00;38.10;;;;;;7637857;22;81796;-80
2022/11/24 15:09:17;;;;;;;11.38;5.95;;;22.00;38.00;;;;;;7641672;22;81592;-73
2022/11/24 15:12:17;;;;;;;13.70;6.75;;;22.00;37.80;;;;;;7641836;22;81213;-74
2022/11/24 15:15:21;;;;;;;14.93;7.60;;;21.90;37.70;;;;;;7643150;22;80548;-62
2022/11/24 15:18:21;;;;;;;13.80;6.63;;;21.90;37.60;;;;;;7643787;22;80749;-69